createdAt,value
2023-03-08T00:02:05.254Z,4.33
2023-03-08T00:04:31.981Z,4.33
2023-03-08T00:06:58.749Z,4.28
2023-03-08T00:09:25.424Z,4.23
2023-03-08T00:11:52.185Z,4.18
2023-03-08T00:14:20.628Z,4.15
2023-03-08T00:16:47.428Z,4.09
2023-03-08T00:19:14.290Z,4.04
2023-03-08T00:21:41.049Z,4.03
2023-03-08T00:24:07.900Z,4.03
2023-03-08T00:26:34.701Z,3.98
2023-03-08T00:29:01.580Z,4.00
2023-03-08T00:31:28.329Z,4.02
2023-03-08T00:33:55.545Z,3.99
2023-03-08T00:36:22.965Z,3.97
2023-03-08T00:38:51.199Z,3.93
2023-03-08T00:41:18.630Z,3.87
2023-03-08T00:43:45.923Z,3.84
2023-03-08T00:46:13.689Z,3.82
2023-03-08T00:48:41.032Z,3.81
2023-03-08T00:51:08.582Z,3.78
2023-03-08T00:53:35.331Z,3.72
2023-03-08T00:56:02.133Z,3.65
2023-03-08T00:58:30.355Z,3.59
2023-03-08T01:00:57.781Z,3.53
2023-03-08T01:03:25.225Z,3.49
2023-03-08T01:05:54.408Z,3.45
2023-03-08T01:08:22.069Z,3.38
2023-03-08T01:10:54.620Z,3.30
2023-03-08T01:13:21.541Z,3.25
2023-03-08T01:15:48.305Z,3.19
2023-03-08T01:18:15.170Z,3.14
2023-03-08T01:20:42.036Z,3.10
2023-03-08T01:23:09.237Z,3.03
2023-03-08T01:25:36.246Z,3.00
2023-03-08T01:28:03.318Z,3.01
2023-03-08T01:30:30.086Z,3.06
2023-03-08T01:32:56.860Z,3.11
2023-03-08T01:35:23.613Z,3.16
2023-03-08T01:37:53.561Z,3.24
2023-03-08T01:40:21.352Z,3.22
2023-03-08T01:42:48.188Z,3.31
2023-03-08T01:45:52.225Z,3.33
2023-03-08T01:48:20.810Z,3.32
2023-03-08T01:50:47.669Z,3.31
2023-03-08T01:53:14.645Z,3.33
2023-03-08T01:55:41.534Z,3.29
2023-03-08T01:58:08.401Z,3.32
2023-03-08T02:00:35.167Z,3.29
2023-03-08T02:03:05.125Z,3.29
2023-03-08T02:05:31.873Z,3.26
2023-03-08T02:07:58.546Z,3.26
2023-03-08T02:10:25.465Z,3.18
2023-03-08T02:12:52.245Z,3.16
2023-03-08T02:15:20.501Z,3.13
2023-03-08T02:17:47.564Z,3.08
2023-03-08T02:20:21.203Z,3.05
2023-03-08T02:22:50.175Z,3.01
2023-03-08T02:25:19.275Z,2.99
2023-03-08T02:27:46.302Z,2.95
2023-03-08T02:30:15.022Z,2.94
2023-03-08T02:32:42.087Z,2.94
2023-03-08T02:35:09.688Z,2.98
2023-03-08T02:37:36.382Z,2.97
2023-03-08T02:40:03.529Z,3.00
2023-03-08T02:42:30.324Z,2.98
2023-03-08T02:44:57.159Z,3.01
2023-03-08T02:47:23.913Z,3.03
2023-03-08T02:49:50.730Z,3.05
2023-03-08T02:52:17.693Z,3.05
2023-03-08T02:54:44.427Z,3.06
2023-03-08T02:57:11.142Z,3.04
2023-03-08T02:59:37.931Z,3.03
2023-03-08T03:02:04.849Z,2.92
2023-03-08T03:04:32.362Z,2.96
2023-03-08T03:06:59.843Z,2.99
2023-03-08T03:09:27.410Z,2.97
2023-03-08T03:11:54.139Z,2.96
2023-03-08T03:14:20.858Z,2.96
2023-03-08T03:16:47.736Z,2.91
2023-03-08T03:19:14.660Z,2.89
2023-03-08T03:21:41.646Z,2.88
2023-03-08T03:24:08.471Z,2.88
2023-03-08T03:26:35.213Z,2.87
2023-03-08T03:29:01.919Z,2.85
2023-03-08T03:31:28.744Z,2.82
2023-03-08T03:33:55.568Z,2.81
2023-03-08T03:36:22.747Z,2.78
2023-03-08T03:38:49.785Z,2.77
2023-03-08T03:41:20.122Z,2.72
2023-03-08T03:43:47.300Z,2.68
2023-03-08T03:46:16.308Z,2.68
2023-03-08T03:48:43.453Z,2.71
2023-03-08T03:51:13.916Z,2.74
2023-03-08T03:53:40.885Z,2.71
2023-03-08T03:56:11.058Z,2.72
2023-03-08T03:58:38.086Z,2.75
2023-03-08T04:01:15.489Z,2.79
2023-03-08T04:03:42.572Z,2.80
2023-03-08T04:06:23.589Z,2.83
2023-03-08T04:08:53.397Z,2.89
2023-03-08T04:11:23.838Z,2.91
2023-03-08T04:13:50.696Z,2.93
2023-03-08T04:16:22.859Z,3.02
2023-03-08T04:18:54.317Z,3.01
2023-03-08T04:21:21.833Z,3.06
2023-03-08T04:23:48.675Z,3.09
2023-03-08T04:26:15.690Z,3.12
2023-03-08T04:28:42.998Z,3.15
2023-03-08T04:31:12.573Z,3.14
2023-03-08T04:33:39.350Z,3.14
2023-03-08T04:36:06.409Z,3.08
2023-03-08T04:38:36.399Z,3.08
2023-03-08T04:41:21.899Z,3.06
2023-03-08T04:43:50.889Z,3.03
2023-03-08T04:46:19.831Z,3.01
2023-03-08T04:48:47.016Z,2.99
2023-03-08T04:51:15.609Z,2.94
2023-03-08T04:53:44.572Z,2.92
2023-03-08T04:56:13.139Z,2.90
2023-03-08T04:58:39.919Z,2.82
2023-03-08T05:01:24.643Z,2.77
2023-03-08T05:03:52.496Z,2.70
2023-03-08T05:06:20.759Z,2.65
2023-03-08T05:08:47.585Z,2.61
2023-03-08T05:11:20.032Z,2.55
2023-03-08T05:13:46.754Z,2.53
2023-03-08T05:16:13.632Z,2.51
2023-03-08T05:18:40.467Z,2.52
2023-03-08T05:21:11.485Z,2.59
2023-03-08T05:23:38.228Z,2.63
2023-03-08T05:26:05.930Z,2.66
2023-03-08T05:28:34.762Z,2.73
2023-03-08T05:31:04.928Z,2.77
2023-03-08T05:33:32.305Z,2.89
2023-03-08T05:35:59.348Z,2.98
2023-03-08T05:38:26.178Z,3.14
2023-03-08T05:40:53.072Z,3.29
2023-03-08T05:43:20.154Z,3.43
2023-03-08T05:46:04.986Z,3.55
2023-03-08T05:48:34.078Z,3.66
2023-03-08T05:51:12.227Z,3.79
2023-03-08T05:53:39.279Z,3.89
2023-03-08T05:56:14.815Z,4.04
2023-03-08T05:58:43.588Z,4.17
2023-03-08T06:01:22.496Z,4.32
2023-03-08T06:03:51.383Z,4.43
2023-03-08T06:06:19.248Z,4.56
2023-03-08T06:08:46.122Z,4.61
2023-03-08T06:11:13.099Z,4.70
2023-03-08T06:13:40.485Z,4.83
2023-03-08T06:16:07.269Z,4.92
2023-03-08T06:18:36.551Z,4.94
2023-03-08T06:21:14.468Z,5.08
2023-03-08T06:23:41.521Z,5.22
2023-03-08T06:26:08.743Z,5.33
2023-03-08T06:28:36.168Z,5.52
2023-03-08T06:31:03.215Z,5.72
2023-03-08T06:33:31.950Z,5.99
2023-03-08T06:36:05.915Z,6.17
2023-03-08T06:38:34.930Z,6.40
2023-03-08T06:41:02.137Z,6.50
2023-03-08T06:43:29.494Z,6.62
2023-03-08T06:45:57.164Z,6.66
2023-03-08T06:48:25.893Z,6.74
2023-03-08T06:50:53.126Z,6.70
2023-03-08T06:53:20.404Z,6.72
2023-03-08T06:55:47.143Z,6.64
2023-03-08T06:58:13.892Z,6.68
2023-03-08T07:00:40.617Z,6.68
2023-03-08T07:03:07.615Z,6.71
2023-03-08T07:05:34.444Z,6.78
2023-03-08T07:08:01.549Z,6.89
2023-03-08T07:10:28.329Z,6.99
2023-03-08T07:12:56.138Z,7.22
2023-03-08T07:15:24.358Z,7.33
2023-03-08T07:17:55.719Z,7.43
2023-03-08T07:20:24.254Z,7.68
2023-03-08T07:22:51.302Z,7.94
2023-03-08T07:25:20.014Z,8.10
2023-03-08T07:27:47.139Z,8.21
2023-03-08T07:30:15.791Z,8.34
2023-03-08T07:32:43.090Z,8.32
2023-03-08T07:35:12.376Z,8.40
